createdAt,value
2022-08-21T00:02:28.933Z,84.56
2022-08-21T00:04:58.943Z,85.41
2022-08-21T00:07:29.280Z,85.77
2022-08-21T00:10:00.905Z,84.34
2022-08-21T00:12:30.697Z,83.92
2022-08-21T00:15:00.823Z,85.77
2022-08-21T00:17:30.661Z,86.14
2022-08-21T00:20:00.691Z,86.95
2022-08-21T00:22:30.607Z,88.04
2022-08-21T00:25:02.217Z,88.77
2022-08-21T00:27:32.071Z,88.91
2022-08-21T00:30:02.062Z,87.69
2022-08-21T00:32:32.549Z,88.09
2022-08-21T00:35:02.483Z,88.40
2022-08-21T00:37:32.406Z,87.94
2022-08-21T00:40:08.621Z,88.46
2022-08-21T00:42:39.009Z,88.47
2022-08-21T00:45:12.003Z,88.19
2022-08-21T00:47:42.240Z,89.92
2022-08-21T00:52:39.065Z,91.14
2022-08-21T00:55:12.779Z,90.98
2022-08-21T00:57:48.722Z,91.21
2022-08-21T01:00:25.244Z,93.01
2022-08-21T01:02:55.291Z,93.10
2022-08-21T01:05:25.361Z,93.13
2022-08-21T01:07:58.476Z,93.05
2022-08-21T01:10:28.902Z,93.02
2022-08-21T01:13:01.222Z,93.01
2022-08-21T01:15:36.545Z,92.30
2022-08-21T01:18:09.317Z,92.70
2022-08-21T01:20:44.344Z,92.46
2022-08-21T01:23:17.729Z,92.73
2022-08-21T01:25:47.802Z,93.68
2022-08-21T01:28:18.520Z,93.57
2022-08-21T01:30:48.901Z,94.12
2022-08-21T01:33:18.801Z,93.56
2022-08-21T01:35:48.979Z,94.92
2022-08-21T01:38:20.700Z,95.92
2022-08-21T01:40:50.643Z,95.29
2022-08-21T01:43:23.889Z,95.91
2022-08-21T01:46:02.758Z,96.19
2022-08-21T01:48:32.624Z,95.33
2022-08-21T01:51:03.211Z,94.55
2022-08-21T01:53:37.174Z,94.05
2022-08-21T01:56:13.820Z,93.35
2022-08-21T01:58:45.358Z,93.42
2022-08-21T02:01:16.057Z,94.71
2022-08-21T02:03:46.034Z,94.17
2022-08-21T02:06:19.238Z,94.51
2022-08-21T02:08:51.961Z,94.83
2022-08-21T02:11:22.518Z,95.48
2022-08-21T02:13:52.466Z,95.29
2022-08-21T02:16:22.301Z,95.36
2022-08-21T02:18:52.360Z,95.20
2022-08-21T02:21:22.314Z,94.86
2022-08-21T02:23:53.824Z,94.73
2022-08-21T02:26:23.785Z,95.52
2022-08-21T02:28:53.801Z,95.70
2022-08-21T02:31:23.693Z,95.70
2022-08-21T02:33:53.961Z,96.05
2022-08-21T02:36:24.523Z,96.34
2022-08-21T02:38:55.944Z,96.27
2022-08-21T02:41:26.584Z,96.15
2022-08-21T02:43:56.641Z,96.17
2022-08-21T02:46:26.644Z,95.78
2022-08-21T02:48:56.583Z,96.14
2022-08-21T02:51:27.227Z,95.32
2022-08-21T02:53:58.664Z,95.55
2022-08-21T02:56:30.780Z,95.01
2022-08-21T02:59:01.564Z,95.27
2022-08-21T03:01:31.559Z,96.47
2022-08-21T03:04:01.405Z,96.26
2022-08-21T03:06:31.527Z,97.39
2022-08-21T03:09:03.063Z,97.52
2022-08-21T03:11:33.091Z,97.13
2022-08-21T03:14:03.159Z,97.11
2022-08-21T03:16:35.141Z,97.01
2022-08-21T03:19:05.834Z,97.52
2022-08-21T03:21:35.842Z,97.01
2022-08-21T03:24:08.108Z,97.68
2022-08-21T03:26:37.850Z,97.79
2022-08-21T03:29:10.469Z,97.74
2022-08-21T03:31:40.606Z,96.98
2022-08-21T03:34:10.321Z,96.73
2022-08-21T03:36:40.278Z,96.62
2022-08-21T03:39:11.746Z,96.40
2022-08-21T03:41:41.707Z,96.23
2022-08-21T03:44:11.670Z,96.06
2022-08-21T03:46:41.644Z,96.31
2022-08-21T03:49:11.642Z,95.97
2022-08-21T03:53:36.703Z,95.64
2022-08-21T03:56:08.258Z,95.69
2022-08-21T03:58:39.692Z,95.72
2022-08-21T04:01:09.727Z,95.01
2022-08-21T04:03:40.823Z,95.34
2022-08-21T04:06:11.548Z,94.88
2022-08-21T04:08:44.263Z,95.91
2022-08-21T04:11:14.186Z,96.05
2022-08-21T04:13:44.646Z,96.11
2022-08-21T04:16:15.158Z,97.09
2022-08-21T04:18:45.681Z,97.07
2022-08-21T04:21:16.035Z,98.61
2022-08-21T04:23:49.820Z,98.42
2022-08-21T04:26:19.820Z,99.01
2022-08-21T04:28:49.685Z,98.81
2022-08-21T04:31:19.684Z,98.41
2022-08-21T04:33:49.906Z,98.22
2022-08-21T04:36:23.002Z,97.78
2022-08-21T04:38:56.039Z,97.60
2022-08-21T04:41:28.200Z,97.76
2022-08-21T04:43:58.641Z,97.01
2022-08-21T04:46:28.468Z,96.56
2022-08-21T04:48:58.739Z,96.84
2022-08-21T04:51:34.048Z,96.93
2022-08-21T04:54:11.401Z,96.78
2022-08-21T04:56:50.158Z,96.75
2022-08-21T04:59:24.447Z,96.67
2022-08-21T05:01:56.203Z,96.88
2022-08-21T05:04:29.389Z,96.97
2022-08-21T05:07:02.864Z,97.09
2022-08-21T05:09:34.852Z,97.75
2022-08-21T05:12:06.664Z,98.23
2022-08-21T05:14:36.941Z,97.75
2022-08-21T05:17:07.666Z,97.85
2022-08-21T05:19:37.540Z,98.15
2022-08-21T05:22:07.723Z,99.00
2022-08-21T05:24:40.034Z,99.42
2022-08-21T05:27:09.825Z,99.90
2022-08-21T05:29:39.801Z,100.00
2022-08-21T05:32:13.984Z,100.00
2022-08-21T05:34:44.021Z,100.00
2022-08-21T05:37:15.438Z,100.00
2022-08-21T05:40:21.690Z,100.00
2022-08-21T05:42:36.840Z,100.00
2022-08-21T05:45:07.880Z,100.00
2022-08-21T05:47:37.819Z,100.00
2022-08-21T05:50:09.063Z,99.51
2022-08-21T05:52:39.001Z,99.50
2022-08-21T05:55:11.435Z,99.39
2022-08-21T05:57:42.558Z,100.00
2022-08-21T06:00:14.846Z,100.00
2022-08-21T06:02:44.470Z,100.00
2022-08-21T06:05:14.585Z,100.00
2022-08-21T06:07:55.323Z,100.00
2022-08-21T06:10:26.660Z,100.00
2022-08-21T06:12:57.875Z,100.00
2022-08-21T06:15:27.859Z,100.00
2022-08-21T06:17:58.944Z,100.00
2022-08-21T06:20:29.544Z,100.00
2022-08-21T06:22:59.612Z,100.00
2022-08-21T06:25:31.561Z,100.00
2022-08-21T06:28:05.862Z,99.86
2022-08-21T06:30:36.799Z,99.60
2022-08-21T06:33:08.339Z,100.00
2022-08-21T06:35:41.614Z,100.00
2022-08-21T06:38:12.180Z,100.00
2022-08-21T06:40:47.114Z,100.00
2022-08-21T06:43:20.502Z,100.00
2022-08-21T06:45:50.383Z,100.00
2022-08-21T06:48:20.439Z,100.00
2022-08-21T06:53:35.802Z,100.00
2022-08-21T06:56:07.269Z,100.00
2022-08-21T06:58:37.145Z,99.29
2022-08-21T07:01:07.715Z,99.35
2022-08-21T07:03:41.460Z,99.19
2022-08-21T07:06:13.701Z,98.99
2022-08-21T07:08:45.320Z,99.36
2022-08-21T07:11:21.660Z,99.35
2022-08-21T07:13:54.123Z,99.28
2022-08-21T07:16:24.583Z,98.96
2022-08-21T07:18:54.424Z,98.42
2022-08-21T07:21:26.158Z,97.73
2022-08-21T07:23:57.903Z,97.34
2022-08-21T07:26:28.568Z,96.48
2022-08-21T07:28:58.845Z,96.85
2022-08-21T07:31:30.799Z,98.03
2022-08-21T07:34:01.424Z,98.49
2022-08-21T07:36:31.277Z,98.86
2022-08-21T07:39:04.881Z,99.59
2022-08-21T07:41:35.781Z,99.96
2022-08-21T07:44:06.582Z,99.84
2022-08-21T07:46:36.843Z,99.52
2022-08-21T07:49:06.763Z,99.54
2022-08-21T07:51:36.851Z,99.27
2022-08-21T07:54:08.176Z,98.63
2022-08-21T07:56:37.924Z,98.23
2022-08-21T07:59:07.587Z,97.94
2022-08-21T08:01:37.417Z,98.23
2022-08-21T08:04:07.499Z,98.07
2022-08-21T08:06:37.663Z,98.53
2022-08-21T08:09:08.849Z,97.83
2022-08-21T08:11:41.810Z,98.31
2022-08-21T08:14:11.628Z,98.04
2022-08-21T08:16:41.441Z,97.75
2022-08-21T08:19:11.176Z,97.01
2022-08-21T08:21:42.268Z,96.15
2022-08-21T08:24:18.982Z,95.51
2022-08-21T08:26:53.684Z,94.92
2022-08-21T08:29:24.271Z,95.50
2022-08-21T08:31:54.361Z,95.81
2022-08-21T08:34:25.691Z,95.25
2022-08-21T08:36:56.183Z,95.03
2022-08-21T08:39:29.687Z,95.19
2022-08-21T08:42:32.250Z,94.28
2022-08-21T08:45:05.720Z,92.69
2022-08-21T08:47:40.652Z,93.61
2022-08-21T08:50:18.594Z,94.02
2022-08-21T08:52:55.110Z,94.28
2022-08-21T08:55:35.848Z,93.79
2022-08-21T08:58:06.467Z,92.71
2022-08-21T09:00:37.282Z,92.02
2022-08-21T09:03:07.388Z,91.25
2022-08-21T09:05:49.443Z,91.56
2022-08-21T09:08:45.053Z,91.45
2022-08-21T09:11:29.486Z,91.45
2022-08-21T09:14:16.118Z,91.25
2022-08-21T09:16:56.965Z,91.53
2022-08-21T09:19:49.585Z,91.48
2022-08-21T09:22:31.673Z,91.40
2022-08-21T09:25:13.969Z,91.20
2022-08-21T09:27:44.862Z,90.20
2022-08-21T09:30:15.705Z,91.59
2022-08-21T09:32:46.002Z,91.45
2022-08-21T09:35:18.734Z,91.80
2022-08-21T09:37:56.572Z,91.70
2022-08-21T09:40:35.444Z,90.75
2022-08-21T09:43:15.084Z,89.86
2022-08-21T09:45:47.611Z,90.71
2022-08-21T09:48:22.362Z,91.44
2022-08-21T09:53:36.424Z,90.41
2022-08-21T09:56:36.260Z,89.82
2022-08-21T09:59:23.363Z,88.89
2022-08-21T10:01:56.386Z,87.97
2022-08-21T10:04:32.946Z,87.44
2022-08-21T10:07:14.004Z,87.73
2022-08-21T10:09:45.726Z,87.58
2022-08-21T10:12:25.358Z,87.65
2022-08-21T10:15:11.202Z,87.61
2022-08-21T10:30:00.338Z,87.87
2022-08-21T10:32:50.754Z,88.00
2022-08-21T10:35:31.741Z,88.33
2022-08-21T10:39:11.817Z,88.44
2022-08-21T10:42:04.629Z,87.46
2022-08-21T10:44:43.994Z,87.70
2022-08-21T10:47:24.494Z,87.15
2022-08-21T10:50:02.553Z,87.93
2022-08-21T10:52:59.958Z,88.00
2022-08-21T10:55:34.732Z,86.25
2022-08-21T10:58:12.730Z,84.76
2022-08-21T11:00:48.020Z,85.54
2022-08-21T11:03:24.334Z,86.09
2022-08-21T11:05:57.375Z,86.78
2022-08-21T11:08:33.674Z,87.14
2022-08-21T11:11:11.105Z,87.47
2022-08-21T11:13:48.079Z,86.91
2022-08-21T11:16:26.512Z,87.42
2022-08-21T11:19:05.374Z,87.91
2022-08-21T11:21:45.482Z,88.48
2022-08-21T11:24:31.279Z,88.54
2022-08-21T11:27:09.203Z,88.47
2022-08-21T11:29:42.353Z,88.08
2022-08-21T11:32:44.878Z,87.74
2022-08-21T11:35:22.354Z,86.61
2022-08-21T11:38:09.830Z,86.11
2022-08-21T11:41:15.355Z,86.26
2022-08-21T11:43:49.673Z,86.44
2022-08-21T11:46:34.390Z,86.53
2022-08-21T11:49:26.345Z,86.09
2022-08-21T11:52:10.602Z,85.65
2022-08-21T11:54:47.246Z,84.81
2022-08-21T11:57:24.345Z,83.86
2022-08-21T12:00:04.180Z,83.86
2022-08-21T12:02:39.173Z,83.87
2022-08-21T12:05:12.353Z,82.21
2022-08-21T12:07:45.457Z,82.30
2022-08-21T12:10:22.279Z,81.91
2022-08-21T12:12:52.053Z,81.81
2022-08-21T12:15:31.284Z,81.78
2022-08-21T12:18:04.540Z,79.61
2022-08-21T12:20:50.201Z,78.78
2022-08-21T12:23:30.826Z,78.41
2022-08-21T12:26:25.994Z,71.13
2022-08-21T12:29:15.274Z,74.64
2022-08-21T12:31:59.627Z,74.82
2022-08-21T12:34:38.054Z,72.32
2022-08-21T12:37:18.113Z,70.28
2022-08-21T12:39:54.204Z,71.68
2022-08-21T12:42:27.287Z,72.43
2022-08-21T12:45:01.363Z,70.19
2022-08-21T12:47:36.325Z,72.29
2022-08-21T12:53:44.973Z,73.24
2022-08-21T12:56:16.938Z,74.65
2022-08-21T12:58:49.334Z,74.91
2022-08-21T13:01:24.856Z,75.26
2022-08-21T13:04:04.962Z,75.37
2022-08-21T13:06:42.640Z,76.22
2022-08-21T13:09:18.145Z,77.36
2022-08-21T13:11:50.157Z,78.50
2022-08-21T13:14:34.600Z,79.14
2022-08-21T13:17:09.774Z,80.07
2022-08-21T13:19:39.453Z,81.07
2022-08-21T13:22:34.583Z,81.28
2022-08-21T13:27:41.243Z,81.79
2022-08-21T13:30:15.592Z,82.96
2022-08-21T13:32:50.022Z,83.54
2022-08-21T13:35:23.324Z,83.97
2022-08-21T13:37:54.428Z,84.31
2022-08-21T13:40:31.430Z,84.92
2022-08-21T13:43:03.314Z,85.50
2022-08-21T13:45:35.455Z,85.74
2022-08-21T13:48:07.563Z,86.19
2022-08-21T13:50:40.320Z,86.46
2022-08-21T13:53:25.075Z,86.19
2022-08-21T13:56:00.363Z,85.72
2022-08-21T13:58:33.731Z,85.55
2022-08-21T14:01:06.598Z,85.82
2022-08-21T14:03:40.738Z,85.53
2022-08-21T14:06:19.134Z,85.84
2022-08-21T14:08:55.896Z,85.99
2022-08-21T14:11:28.178Z,86.18
2022-08-21T14:14:04.973Z,86.27
2022-08-21T14:16:49.315Z,86.55
2022-08-21T14:19:24.304Z,86.64
2022-08-21T14:21:55.535Z,86.99
2022-08-21T14:24:35.763Z,87.03
2022-08-21T14:27:10.984Z,87.06
2022-08-21T14:29:44.599Z,87.15
2022-08-21T14:32:24.444Z,87.66
2022-08-21T14:34:55.262Z,88.17
2022-08-21T14:37:28.802Z,89.03
2022-08-21T14:39:58.380Z,89.00
2022-08-21T14:42:29.539Z,89.69
2022-08-21T14:45:03.812Z,90.51
2022-08-21T14:47:33.359Z,91.32
2022-08-21T14:50:02.774Z,91.58
2022-08-21T14:52:32.056Z,91.83
2022-08-21T14:55:01.493Z,91.42
2022-08-21T14:57:34.477Z,91.53
2022-08-21T15:00:04.119Z,92.12
2022-08-21T15:02:33.502Z,92.13
2022-08-21T15:05:02.945Z,92.18
2022-08-21T15:07:32.385Z,92.18
2022-08-21T15:10:01.938Z,91.97
2022-08-21T15:12:35.799Z,91.78
2022-08-21T15:15:06.864Z,91.94
2022-08-21T15:17:36.425Z,91.91
2022-08-21T15:20:08.811Z,92.24
2022-08-21T15:22:38.286Z,92.27
2022-08-21T15:25:08.825Z,92.92
2022-08-21T15:27:39.806Z,93.16
2022-08-21T15:30:11.038Z,92.99
2022-08-21T15:32:40.536Z,93.52
2022-08-21T15:35:10.691Z,94.60
2022-08-21T15:37:40.112Z,94.59
2022-08-21T15:40:11.635Z,94.41
2022-08-21T15:42:44.231Z,94.60
2022-08-21T15:45:15.618Z,94.48
2022-08-21T15:47:48.262Z,93.83
2022-08-21T15:53:39.535Z,93.37
2022-08-21T15:56:13.094Z,93.81
2022-08-21T15:58:42.754Z,93.83
2022-08-21T16:01:12.325Z,94.07
2022-08-21T16:03:42.438Z,93.52
2022-08-21T16:06:12.404Z,93.95
2022-08-21T16:08:43.698Z,95.04
2022-08-21T16:11:14.335Z,95.76
2022-08-21T16:13:46.597Z,96.24
2022-08-21T16:16:20.731Z,96.28
2022-08-21T16:18:51.477Z,96.12
2022-08-21T16:21:22.494Z,96.41
2022-08-21T16:23:53.423Z,96.64
2022-08-21T16:26:23.831Z,96.68
2022-08-21T16:28:58.107Z,96.81
2022-08-21T16:31:28.550Z,97.03
2022-08-21T16:34:00.047Z,97.62
2022-08-21T16:36:30.115Z,97.72
2022-08-21T16:39:03.362Z,98.18
2022-08-21T16:41:37.082Z,96.20
2022-08-21T16:44:08.677Z,95.38
2022-08-21T16:46:43.627Z,95.57
2022-08-21T16:49:13.176Z,95.63
2022-08-21T16:51:43.681Z,95.39
2022-08-21T16:54:15.373Z,95.28
2022-08-21T16:56:47.754Z,95.26
2022-08-21T16:59:17.908Z,95.39
2022-08-21T17:01:48.343Z,95.56
2022-08-21T17:04:17.796Z,95.74
2022-08-21T17:06:47.287Z,95.27
2022-08-21T17:09:18.137Z,95.39
2022-08-21T17:11:50.955Z,95.43
2022-08-21T17:14:24.122Z,95.71
2022-08-21T17:16:57.578Z,95.89
2022-08-21T17:19:27.096Z,95.49
2022-08-21T17:21:56.755Z,95.64
2022-08-21T17:24:27.741Z,96.24
2022-08-21T17:26:57.945Z,96.03
2022-08-21T17:29:36.554Z,95.99
2022-08-21T17:32:11.330Z,96.04
2022-08-21T17:34:42.021Z,95.78
2022-08-21T17:37:11.522Z,95.62
2022-08-21T17:39:42.444Z,95.50
2022-08-21T17:42:16.325Z,96.07
2022-08-21T17:44:48.543Z,96.54
2022-08-21T17:47:18.115Z,96.78
2022-08-21T17:49:47.932Z,96.75
2022-08-21T17:52:17.534Z,96.55
2022-08-21T17:54:48.385Z,96.87
2022-08-21T17:57:24.122Z,96.85
2022-08-21T17:59:58.069Z,96.94
2022-08-21T18:02:28.163Z,96.73
2022-08-21T18:04:57.834Z,96.74
2022-08-21T18:07:32.762Z,96.72
2022-08-21T18:10:06.216Z,96.74
2022-08-21T18:12:36.377Z,96.94
2022-08-21T18:15:08.335Z,97.20
2022-08-21T18:17:37.893Z,97.26
2022-08-21T18:20:09.892Z,96.97
2022-08-21T18:22:39.291Z,97.03
2022-08-21T18:25:11.615Z,96.80
2022-08-21T18:27:42.798Z,97.01
2022-08-21T18:30:14.533Z,96.54
2022-08-21T18:32:44.622Z,96.50
2022-08-21T18:35:15.746Z,96.01
2022-08-21T18:37:45.931Z,97.00
2022-08-21T18:40:17.185Z,96.61
2022-08-21T18:42:55.212Z,95.80
2022-08-21T18:45:26.272Z,95.90
2022-08-21T18:47:58.896Z,96.07
2022-08-21T18:53:36.305Z,96.03
2022-08-21T18:56:07.310Z,96.71
2022-08-21T18:58:58.652Z,97.30
2022-08-21T19:01:28.580Z,97.79
2022-08-21T19:03:58.193Z,98.17
2022-08-21T19:06:27.840Z,98.77
2022-08-21T19:09:01.634Z,99.09
2022-08-21T19:11:31.634Z,98.67
2022-08-21T19:14:01.505Z,98.52
2022-08-21T19:16:31.719Z,97.65
2022-08-21T19:19:04.037Z,97.78
2022-08-21T19:21:34.898Z,98.43
2022-08-21T19:24:17.393Z,99.34
2022-08-21T19:26:48.240Z,98.98
2022-08-21T19:29:22.380Z,99.59
2022-08-21T19:32:06.954Z,99.20
2022-08-21T19:34:38.835Z,98.98
2022-08-21T19:37:08.450Z,98.74
2022-08-21T19:39:46.481Z,98.02
2022-08-21T19:42:21.930Z,98.04
2022-08-21T19:44:57.402Z,98.34
2022-08-21T19:47:29.237Z,98.94
2022-08-21T19:50:04.327Z,98.62
2022-08-21T19:52:51.316Z,98.95
2022-08-21T19:55:38.439Z,98.30
2022-08-21T19:58:25.789Z,98.76
2022-08-21T20:00:55.429Z,99.14
2022-08-21T20:03:24.825Z,99.66
2022-08-21T20:05:54.410Z,99.68
2022-08-21T20:08:28.055Z,99.79
2022-08-21T20:13:52.038Z,99.69
2022-08-21T20:16:23.084Z,99.40
2022-08-21T20:18:53.149Z,99.19
2022-08-21T20:21:22.563Z,99.48
2022-08-21T20:23:52.671Z,99.45
2022-08-21T20:26:24.415Z,98.85
2022-08-21T20:28:55.544Z,98.20
2022-08-21T20:31:26.916Z,98.62
2022-08-21T20:33:57.924Z,99.14
2022-08-21T20:36:28.052Z,99.59
2022-08-21T20:38:57.494Z,100.00
2022-08-21T20:41:30.674Z,100.00
2022-08-21T20:44:01.502Z,100.00
2022-08-21T20:46:35.061Z,100.00
2022-08-21T20:49:04.780Z,100.00
2022-08-21T20:51:41.154Z,99.81
2022-08-21T20:54:22.522Z,100.00
2022-08-21T20:56:59.676Z,99.80
2022-08-21T20:59:47.498Z,99.07
2022-08-21T21:02:35.719Z,99.41
2022-08-21T21:05:22.730Z,99.64
2022-08-21T21:08:03.457Z,99.86
2022-08-21T21:10:40.385Z,99.75
2022-08-21T21:13:21.899Z,99.17
2022-08-21T21:15:56.578Z,99.55
2022-08-21T21:18:36.802Z,99.71
2022-08-21T21:21:16.979Z,100.00
2022-08-21T21:23:54.596Z,100.00
2022-08-21T21:26:32.358Z,99.76
2022-08-21T21:29:19.565Z,99.52
2022-08-21T21:31:52.713Z,99.37
2022-08-21T21:34:23.861Z,98.82
2022-08-21T21:37:02.033Z,99.02
2022-08-21T21:39:36.093Z,99.07
2022-08-21T21:42:41.960Z,98.88
2022-08-21T21:45:27.233Z,98.57
2022-08-21T21:48:11.813Z,98.90
2022-08-21T21:53:51.615Z,99.15
2022-08-21T21:56:29.957Z,99.23
2022-08-21T21:59:29.675Z,99.70
2022-08-21T22:02:08.221Z,100.00
2022-08-21T22:04:52.300Z,100.00
2022-08-21T22:07:32.025Z,99.63
2022-08-21T22:13:26.222Z,98.83
2022-08-21T22:15:56.855Z,99.03
2022-08-21T22:18:31.566Z,98.84
2022-08-21T22:21:06.811Z,98.92
2022-08-21T22:23:42.297Z,99.40
2022-08-21T22:26:19.857Z,99.15
2022-08-21T22:28:52.939Z,99.58
2022-08-21T22:31:26.154Z,99.97
2022-08-21T22:34:17.990Z,100.00
2022-08-21T22:37:00.237Z,99.88
2022-08-21T22:42:29.094Z,99.48
2022-08-21T22:45:02.548Z,99.93
2022-08-21T22:47:39.661Z,100.00
2022-08-21T22:50:22.002Z,100.00
2022-08-21T22:52:57.135Z,100.00
2022-08-21T22:55:32.401Z,99.71
2022-08-21T22:58:11.705Z,99.65
2022-08-21T23:00:56.612Z,99.46
2022-08-21T23:03:35.020Z,99.41
2022-08-21T23:06:24.774Z,99.25
2022-08-21T23:08:56.639Z,99.53
2022-08-21T23:11:41.195Z,99.46
2022-08-21T23:14:14.583Z,99.41
2022-08-21T23:16:54.457Z,100.00
2022-08-21T23:19:43.244Z,99.73
2022-08-21T23:22:38.416Z,99.23
2022-08-21T23:25:42.440Z,99.42
2022-08-21T23:28:27.163Z,99.85
2022-08-21T23:31:12.041Z,99.79
2022-08-21T23:37:25.941Z,99.51
2022-08-21T23:40:33.712Z,100.00
2022-08-21T23:43:24.770Z,99.79
2022-08-21T23:46:21.364Z,99.84
2022-08-21T23:49:20.171Z,99.76
2022-08-21T23:52:00.664Z,99.81
2022-08-21T23:54:42.503Z,99.63
2022-08-21T23:57:31.469Z,99.36
